Time,TemperatureF,DewpointF,PressureIn,WindDirection,WindDirectionDegrees,WindSpeedMPH,WindSpeedGustMPH,Humidity,HourlyPrecipIn,Conditions,Clouds,dailyrainin,SoftwareType,DateUTC
2013-01-20 00:11:00,43.1,30.0,29.92,WSW,248,4.0,10.0,61,0.00,,,0.00,weatherlink.com 1.10,2013-01-20 05:11:00,
2013-01-20 00:26:00,43.1,31.0,29.92,WSW,256,10.0,10.0,62,0.00,,,0.00,weatherlink.com 1.10,2013-01-20 05:26:00,
2013-01-20 00:41:00,42.9,31.0,29.91,SSW,204,1.0,8.0,63,0.00,,,0.00,weatherlink.com 1.10,2013-01-20 05:41:00,
2013-01-20 00:56:00,42.6,31.0,29.90,West,262,2.0,11.0,63,0.00,,,0.00,weatherlink.com 1.10,2013-01-20 05:56:00,
2013-01-20 01:11:00,42.4,30.0,29.89,West,269,4.0,8.0,63,0.00,,,0.00,weatherlink.com 1.10,2013-01-20 06:11:00,
2013-01-20 01:26:00,42.3,31.0,29.87,SSW,193,4.0,10.0,64,0.00,,,0.00,weatherlink.com 1.10,2013-01-20 06:26:00,
2013-01-20 01:41:00,42.1,31.0,29.88,West,276,5.0,7.0,64,0.00,,,0.00,weatherlink.com 1.10,2013-01-20 06:41:00,
2013-01-20 01:57:00,42.1,31.0,29.87,SW,219,2.0,8.0,65,0.00,,,0.00,weatherlink.com 1.10,2013-01-20 06:57:00,
2013-01-20 02:12:00,41.8,31.0,29.86,South,174,3.0,6.0,66,0.00,,,0.00,weatherlink.com 1.10,2013-01-20 07:12:00,
2013-01-20 02:27:00,41.6,32.0,29.86,WSW,256,2.0,11.0,68,0.00,,,0.00,weatherlink.com 1.10,2013-01-20 07:27:00,
2013-01-20 02:42:00,41.5,32.0,29.86,WSW,256,4.0,9.0,68,0.00,,,0.00,weatherlink.com 1.10,2013-01-20 07:42:00,
2013-01-20 02:57:00,41.4,32.0,29.86,WSW,250,2.0,5.0,68,0.00,,,0.00,weatherlink.com 1.10,2013-01-20 07:57:00,
2013-01-20 03:12:00,41.4,32.0,29.85,SSE,162,2.0,6.0,68,0.00,,,0.00,weatherlink.com 1.10,2013-01-20 08:12:00,
2013-01-20 03:27:00,41.3,31.0,29.84,South,183,5.0,6.0,67,0.00,,,0.00,weatherlink.com 1.10,2013-01-20 08:27:00,
2013-01-20 03:42:00,41.2,31.0,29.84,West,266,4.0,9.0,67,0.00,,,0.00,weatherlink.com 1.10,2013-01-20 08:42:00,
2013-01-20 03:57:00,41.0,31.0,29.83,NNW,327,1.0,6.0,68,0.00,,,0.00,weatherlink.com 1.10,2013-01-20 08:57:00,
2013-01-20 04:12:00,40.7,31.0,29.82,SW,235,1.0,7.0,69,0.00,,,0.00,weatherlink.com 1.10,2013-01-20 09:12:00,
2013-01-20 04:27:00,40.4,31.0,29.81,SW,228,2.0,5.0,70,0.00,,,0.00,weatherlink.com 1.10,2013-01-20 09:27:00,
2013-01-20 04:42:00,40.1,31.0,29.81,WSW,248,2.0,5.0,71,0.00,,,0.00,weatherlink.com 1.10,2013-01-20 09:42:00,
2013-01-20 04:57:00,39.7,31.0,29.80,West,269,0.0,4.0,72,0.00,,,0.00,weatherlink.com 1.10,2013-01-20 09:57:00,
2013-01-20 05:12:00,39.7,31.0,29.79,SW,229,1.0,4.0,72,0.00,,,0.00,weatherlink.com 1.10,2013-01-20 10:12:00,
2013-01-20 05:27:00,39.8,31.0,29.78,West,273,0.0,6.0,72,0.00,,,0.00,weatherlink.com 1.10,2013-01-20 10:27:00,
2013-01-20 05:42:00,40.1,31.0,29.78,WSW,256,3.0,6.0,71,0.00,,,0.00,weatherlink.com 1.10,2013-01-20 10:42:00,
2013-01-20 05:57:00,40.4,31.0,29.77,WSW,253,3.0,7.0,70,0.00,,,0.00,weatherlink.com 1.10,2013-01-20 10:57:00,
2013-01-20 06:12:00,40.7,31.0,29.77,WSW,238,1.0,7.0,69,0.00,,,0.00,weatherlink.com 1.10,2013-01-20 11:12:00,
2013-01-20 06:27:00,41.1,31.0,29.76,West,270,2.0,10.0,68,0.00,,,0.00,weatherlink.com 1.10,2013-01-20 11:27:00,
2013-01-20 06:42:00,41.3,31.0,29.76,West,259,2.0,11.0,68,0.00,,,0.00,weatherlink.com 1.10,2013-01-20 11:42:00,
2013-01-20 06:57:00,41.3,31.0,29.76,SW,228,6.0,10.0,68,0.00,,,0.00,weatherlink.com 1.10,2013-01-20 11:57:00,
2013-01-20 07:12:00,41.5,31.0,29.75,WSW,240,4.0,10.0,67,0.00,,,0.00,weatherlink.com 1.10,2013-01-20 12:12:00,
2013-01-20 07:27:00,41.5,31.0,29.75,West,277,3.0,8.0,67,0.00,,,0.00,weatherlink.com 1.10,2013-01-20 12:27:00,
2013-01-20 07:42:00,41.8,31.0,29.75,SSE,155,2.0,11.0,65,0.00,,,0.00,weatherlink.com 1.10,2013-01-20 12:42:00,
2013-01-20 07:57:00,42.4,31.0,29.75,WSW,255,3.0,10.0,64,0.00,,,0.00,weatherlink.com 1.10,2013-01-20 12:57:00,
2013-01-20 08:12:00,43.1,31.0,29.74,West,271,5.0,8.0,62,0.00,,,0.00,weatherlink.com 1.10,2013-01-20 13:12:00,
2013-01-20 08:27:00,43.9,31.0,29.75,South,179,3.0,7.0,61,0.00,,,0.00,weatherlink.com 1.10,2013-01-20 13:27:00,
2013-01-20 08:42:00,44.7,31.0,29.75,West,262,2.0,7.0,59,0.00,,,0.00,weatherlink.com 1.10,2013-01-20 13:42:00,
2013-01-20 08:57:00,45.2,31.0,29.76,WSW,251,6.0,12.0,58,0.00,,,0.00,weatherlink.com 1.10,2013-01-20 13:57:00,
2013-01-20 09:12:00,45.7,31.0,29.76,WSW,242,7.0,11.0,57,0.00,,,0.00,weatherlink.com 1.10,2013-01-20 14:12:00,
2013-01-20 09:27:00,46.4,31.0,29.76,WSW,252,1.0,11.0,56,0.00,,,0.00,weatherlink.com 1.10,2013-01-20 14:27:00,
2013-01-20 09:43:00,47.0,31.0,29.76,WSW,252,9.0,14.0,54,0.00,,,0.00,weatherlink.com 1.10,2013-01-20 14:43:00,
2013-01-20 09:58:00,47.5,31.0,29.76,WSW,257,7.0,12.0,54,0.00,,,0.00,weatherlink.com 1.10,2013-01-20 14:58:00,
2013-01-20 10:13:00,48.0,31.0,29.76,WSW,253,6.0,13.0,53,0.00,,,0.00,weatherlink.com 1.10,2013-01-20 15:13:00,
2013-01-20 10:28:00,49.2,31.0,29.75,SSE,148,6.0,14.0,50,0.00,,,0.00,weatherlink.com 1.10,2013-01-20 15:28:00,
2013-01-20 10:43:00,50.3,31.0,29.75,WSW,249,11.0,20.0,48,0.00,,,0.00,weatherlink.com 1.10,2013-01-20 15:43:00,
2013-01-20 10:58:00,51.1,32.0,29.74,WSW,250,6.0,16.0,48,0.00,,,0.00,weatherlink.com 1.10,2013-01-20 15:58:00,
2013-01-20 11:13:00,52.2,32.0,29.73,West,259,10.0,16.0,46,0.00,,,0.00,weatherlink.com 1.10,2013-01-20 16:13:00,
2013-01-20 11:28:00,52.6,32.0,29.71,WSW,257,4.0,14.0,45,0.00,,,0.00,weatherlink.com 1.10,2013-01-20 16:28:00,
2013-01-20 11:43:00,53.0,32.0,29.71,WNW,290,7.0,18.0,45,0.00,,,0.00,weatherlink.com 1.10,2013-01-20 16:43:00,
2013-01-20 11:58:00,53.5,32.0,29.70,WSW,246,7.0,20.0,44,0.00,,,0.00,weatherlink.com 1.10,2013-01-20 16:58:00,
2013-01-20 12:13:00,54.2,31.0,29.69,West,274,4.0,15.0,41,0.00,,,0.00,weatherlink.com 1.10,2013-01-20 17:13:00,
2013-01-20 12:28:00,54.6,30.0,29.69,West,273,6.0,20.0,39,0.00,,,0.00,weatherlink.com 1.10,2013-01-20 17:28:00,
2013-01-20 12:43:00,54.3,30.0,29.69,WNW,284,9.0,20.0,39,0.00,,,0.00,weatherlink.com 1.10,2013-01-20 17:43:00,
2013-01-20 12:58:00,54.5,31.0,29.68,WSW,243,6.0,21.0,41,0.00,,,0.00,weatherlink.com 1.10,2013-01-20 17:58:00,
2013-01-20 13:13:00,55.3,29.0,29.68,East,91,5.0,14.0,37,0.00,,,0.00,weatherlink.com 1.10,2013-01-20 18:13:00,
2013-01-20 13:28:00,55.0,26.0,29.68,WSW,245,9.0,18.0,33,0.00,,,0.00,weatherlink.com 1.10,2013-01-20 18:28:00,
2013-01-20 13:43:00,54.6,27.0,29.68,South,186,5.0,17.0,34,0.00,,,0.00,weatherlink.com 1.10,2013-01-20 18:43:00,
2013-01-20 13:58:00,53.7,25.0,29.69,SSW,194,3.0,17.0,33,0.00,,,0.00,weatherlink.com 1.10,2013-01-20 18:58:00,
2013-01-20 14:13:00,54.1,25.0,29.69,WSW,240,16.0,16.0,32,0.00,,,0.00,weatherlink.com 1.10,2013-01-20 19:13:00,
2013-01-20 14:28:00,53.8,23.0,29.70,WNW,282,8.0,18.0,30,0.00,,,0.00,weatherlink.com 1.10,2013-01-20 19:28:00,
2013-01-20 14:43:00,53.9,24.0,29.71,WSW,255,9.0,14.0,31,0.00,,,0.00,weatherlink.com 1.10,2013-01-20 19:43:00,
2013-01-20 14:58:00,54.1,25.0,29.72,SW,229,4.0,14.0,32,0.00,,,0.00,weatherlink.com 1.10,2013-01-20 19:58:00,
2013-01-20 15:13:00,53.4,23.0,29.73,WNW,285,8.0,11.0,31,0.00,,,0.00,weatherlink.com 1.10,2013-01-20 20:13:00,
2013-01-20 15:28:00,53.4,17.0,29.74,North,5,2.0,16.0,24,0.00,,,0.00,weatherlink.com 1.10,2013-01-20 20:28:00,
2013-01-20 15:43:00,52.1,13.0,29.75,West,278,4.0,15.0,21,0.00,,,0.00,weatherlink.com 1.10,2013-01-20 20:43:00,
2013-01-20 15:58:00,51.5,14.0,29.76,SW,229,8.0,10.0,22,0.00,,,0.00,weatherlink.com 1.10,2013-01-20 20:58:00,
2013-01-20 16:13:00,51.2,13.0,29.77,WSW,248,8.0,15.0,22,0.00,,,0.00,weatherlink.com 1.10,2013-01-20 21:13:00,
2013-01-20 16:29:00,50.2,14.0,29.78,SW,222,4.0,17.0,23,0.00,,,0.00,weatherlink.com 1.10,2013-01-20 21:29:00,
2013-01-20 16:44:00,49.0,12.0,29.79,West,267,6.0,13.0,23,0.00,,,0.00,weatherlink.com 1.10,2013-01-20 21:44:00,
2013-01-20 16:59:00,48.3,13.0,29.80,WSW,255,3.0,13.0,24,0.00,,,0.00,weatherlink.com 1.10,2013-01-20 21:59:00,
2013-01-20 17:14:00,47.5,13.0,29.80,ENE,71,6.0,18.0,25,0.00,,,0.00,weatherlink.com 1.10,2013-01-20 22:14:00,
2013-01-20 17:29:00,47.1,11.0,29.82,SSW,211,8.0,19.0,23,0.00,,,0.00,weatherlink.com 1.10,2013-01-20 22:29:00,
2013-01-20 17:44:00,46.5,11.0,29.83,NNW,330,6.0,15.0,24,0.00,,,0.00,weatherlink.com 1.10,2013-01-20 22:44:00,
2013-01-20 17:59:00,45.8,13.0,29.84,NNW,338,4.0,15.0,26,0.00,,,0.00,weatherlink.com 1.10,2013-01-20 22:59:00,
2013-01-20 18:14:00,45.1,13.0,29.86,West,259,2.0,11.0,27,0.00,,,0.00,weatherlink.com 1.10,2013-01-20 23:14:00,
2013-01-20 18:29:00,44.5,14.0,29.86,SW,234,6.0,18.0,29,0.00,,,0.00,weatherlink.com 1.10,2013-01-20 23:29:00,
2013-01-20 18:44:00,43.6,18.0,29.88,North,5,1.0,10.0,36,0.00,,,0.00,weatherlink.com 1.10,2013-01-20 23:44:00,
2013-01-20 18:59:00,42.0,18.0,29.89,North,353,6.0,13.0,38,0.00,,,0.00,weatherlink.com 1.10,2013-01-20 23:59:00,
2013-01-20 19:14:00,41.1,18.0,29.89,WSW,238,1.0,10.0,40,0.00,,,0.00,weatherlink.com 1.10,2013-01-21 00:14:00,
2013-01-20 19:29:00,40.1,18.0,29.91,West,274,1.0,10.0,41,0.00,,,0.00,weatherlink.com 1.10,2013-01-21 00:29:00,
2013-01-20 19:44:00,39.4,18.0,29.92,WNW,293,0.0,10.0,42,0.00,,,0.00,weatherlink.com 1.10,2013-01-21 00:44:00,
2013-01-20 19:59:00,38.6,17.0,29.93,West,264,3.0,10.0,41,0.00,,,0.00,weatherlink.com 1.10,2013-01-21 00:59:00,
2013-01-20 20:14:00,38.0,17.0,29.94,NW,307,3.0,12.0,42,0.00,,,0.00,weatherlink.com 1.10,2013-01-21 01:14:00,
2013-01-20 20:30:00,37.5,16.0,29.94,West,266,0.0,9.0,42,0.00,,,0.00,weatherlink.com 1.10,2013-01-21 01:30:00,
2013-01-20 20:45:00,36.6,15.0,29.95,West,266,1.0,7.0,41,0.00,,,0.00,weatherlink.com 1.10,2013-01-21 01:45:00,
2013-01-20 21:00:00,36.1,14.0,29.96,NNW,338,1.0,10.0,41,0.00,,,0.00,weatherlink.com 1.10,2013-01-21 02:00:00,
2013-01-20 21:15:00,35.7,14.0,29.97,WNW,285,2.0,13.0,41,0.00,,,0.00,weatherlink.com 1.10,2013-01-21 02:15:00,
2013-01-20 21:30:00,34.9,13.0,29.97,West,280,2.0,10.0,41,0.00,,,0.00,weatherlink.com 1.10,2013-01-21 02:30:00,
2013-01-20 21:45:00,34.4,13.0,29.98,NNW,334,3.0,8.0,42,0.00,,,0.00,weatherlink.com 1.10,2013-01-21 02:45:00,
2013-01-20 22:00:00,34.0,13.0,29.98,NW,319,3.0,10.0,43,0.00,,,0.00,weatherlink.com 1.10,2013-01-21 03:00:00,
2013-01-20 22:15:00,33.5,13.0,29.99,NW,312,1.0,11.0,43,0.00,,,0.00,weatherlink.com 1.10,2013-01-21 03:15:00,
2013-01-20 22:30:00,33.0,13.0,30.00,NW,324,4.0,11.0,44,0.00,,,0.00,weatherlink.com 1.10,2013-01-21 03:30:00,
2013-01-20 22:45:00,32.8,13.0,30.00,NE,46,3.0,10.0,45,0.00,,,0.00,weatherlink.com 1.10,2013-01-21 03:45:00,
2013-01-20 23:00:00,32.0,13.0,30.00,WNW,302,2.0,8.0,45,0.00,,,0.00,weatherlink.com 1.10,2013-01-21 04:00:00,
2013-01-20 23:15:00,31.6,12.0,30.01,WSW,240,8.0,11.0,44,0.00,,,0.00,weatherlink.com 1.10,2013-01-21 04:15:00,
2013-01-20 23:30:00,31.3,12.0,30.03,West,260,0.0,10.0,44,0.00,,,0.00,weatherlink.com 1.10,2013-01-21 04:30:00,
2013-01-20 23:45:00,30.9,11.0,30.03,SW,217,5.0,9.0,44,0.00,,,0.00,weatherlink.com 1.10,2013-01-21 04:45:00,